Time;durP1;ratioP1;P1;durP2;ratioP2;P2;SDS_P1;SDS_P2;PMS_P1;PMS_P2;Temp;Humidity;BMP_temperature;BMP_pressure;BME280_temperature;BME280_humidity;BME280_pressure;Samples;Min_cycle;Max_cycle;Signal;HPM_P1;HPM_P2
2022/11/01 00:00:50;;;;;;;25.67;16.27;;;13.10;99.90;;;;;;5115741;28;20901;-73
2022/11/01 00:03:15;;;;;;;26.40;15.63;;;13.10;99.90;;;;;;5128844;28;20394;-73
2022/11/01 00:05:41;;;;;;;24.80;15.10;;;13.10;99.90;;;;;;5115319;28;20403;-72
2022/11/01 00:08:06;;;;;;;29.43;15.90;;;13.20;99.90;;;;;;5128318;28;20409;-73
2022/11/01 00:10:32;;;;;;;30.33;16.08;;;13.20;99.90;;;;;;5128803;28;20452;-72
2022/11/01 00:12:58;;;;;;;27.87;15.30;;;13.20;99.90;;;;;;5119244;28;20912;-74
2022/11/01 00:15:23;;;;;;;27.85;15.30;;;13.20;99.90;;;;;;5107936;28;20510;-73
2022/11/01 00:17:49;;;;;;;26.10;15.02;;;13.20;99.90;;;;;;5107375;28;20469;-73
2022/11/01 00:20:15;;;;;;;27.90;15.80;;;13.20;99.90;;;;;;5109766;28;20416;-73
2022/11/01 00:22:41;;;;;;;24.67;15.23;;;13.20;99.90;;;;;;5107206;28;20452;-73
2022/11/01 00:25:07;;;;;;;23.17;14.73;;;13.20;99.90;;;;;;5124692;28;20399;-72
2022/11/01 00:27:32;;;;;;;24.70;14.52;;;13.20;99.90;;;;;;5112528;28;20432;-73
2022/11/01 00:29:58;;;;;;;26.77;15.37;;;13.30;99.90;;;;;;5125037;28;20398;-73
2022/11/01 00:32:23;;;;;;;24.17;14.83;;;13.30;99.90;;;;;;5125905;28;20410;-73
2022/11/01 00:34:49;;;;;;;24.52;14.40;;;13.20;99.90;;;;;;5126518;28;20868;-73
2022/11/01 00:37:14;;;;;;;23.33;14.40;;;13.20;99.90;;;;;;5096433;28;20408;-73
2022/11/01 00:39:40;;;;;;;26.15;15.05;;;13.20;99.90;;;;;;5123662;28;20464;-72
2022/11/01 00:42:06;;;;;;;24.17;14.47;;;13.30;99.90;;;;;;5129209;28;20427;-73
2022/11/01 00:44:32;;;;;;;23.02;14.23;;;13.20;99.90;;;;;;5125697;28;20413;-73
2022/11/01 00:46:57;;;;;;;23.20;14.03;;;13.20;99.90;;;;;;5107007;28;20408;-72
2022/11/01 00:49:23;;;;;;;24.95;14.63;;;13.20;99.90;;;;;;5108689;28;20404;-72
2022/11/01 00:51:49;;;;;;;25.70;14.70;;;13.20;99.90;;;;;;5121919;28;20400;-73
2022/11/01 00:54:14;;;;;;;22.98;14.18;;;13.20;99.90;;;;;;5102930;28;20431;-73
2022/11/01 00:56:40;;;;;;;25.43;14.73;;;13.20;99.90;;;;;;5117281;28;20401;-73
2022/11/01 00:59:05;;;;;;;22.95;14.02;;;13.20;99.90;;;;;;5108525;28;20399;-73
2022/11/01 01:01:31;;;;;;;23.73;14.50;;;13.20;99.90;;;;;;5108568;28;20899;-73
2022/11/01 01:03:57;;;;;;;25.37;14.27;;;13.20;99.90;;;;;;5105373;27;20402;-73
2022/11/01 01:06:22;;;;;;;22.10;13.73;;;13.20;99.90;;;;;;5131586;27;20402;-73
2022/11/01 01:08:48;;;;;;;22.83;13.48;;;13.20;99.90;;;;;;5130695;27;20759;-73
2022/11/01 01:11:14;;;;;;;21.60;13.40;;;13.20;99.90;;;;;;5081569;28;20910;-72
2022/11/01 01:13:39;;;;;;;21.10;13.07;;;13.20;99.90;;;;;;5126395;27;20390;-72
2022/11/01 01:16:09;;;;;;;22.35;13.82;;;13.30;99.90;;;;;;5088597;28;20486;-73
2022/11/01 01:18:35;;;;;;;22.08;12.70;;;13.20;99.90;;;;;;5127273;27;20912;-72
2022/11/01 01:21:03;;;;;;;22.90;13.23;;;13.30;99.90;;;;;;5132096;27;20489;-73
2022/11/01 01:23:28;;;;;;;21.73;13.00;;;13.30;99.90;;;;;;5130568;27;20407;-73
2022/11/01 01:25:54;;;;;;;21.17;12.87;;;13.30;99.90;;;;;;5113325;27;20407;-72
2022/11/01 01:28:19;;;;;;;23.23;13.23;;;13.30;99.90;;;;;;5131680;27;20455;-73
2022/11/01 01:30:45;;;;;;;21.33;12.30;;;13.30;99.90;;;;;;5129224;27;20477;-73
2022/11/01 01:33:10;;;;;;;18.60;11.80;;;13.30;99.90;;;;;;5114736;27;20761;-72
2022/11/01 01:35:37;;;;;;;21.60;11.00;;;13.30;99.90;;;;;;5131853;27;20398;-72
2022/11/01 01:38:04;;;;;;;19.00;12.27;;;13.30;99.90;;;;;;5118711;27;20415;-72
2022/11/01 01:40:30;;;;;;;19.63;11.93;;;13.30;99.90;;;;;;5109503;28;20412;-72
2022/11/01 01:42:56;;;;;;;20.42;11.38;;;13.40;99.90;;;;;;5127262;27;20419;-72
2022/11/01 01:45:28;;;;;;;19.95;12.10;;;13.40;99.90;;;;;;5130991;27;20390;-73
2022/11/01 01:47:58;;;;;;;18.80;11.57;;;13.40;99.90;;;;;;5111619;27;20413;-73
2022/11/01 01:50:29;;;;;;;18.40;11.03;;;13.50;99.90;;;;;;5131569;27;20409;-72
2022/11/01 01:52:58;;;;;;;17.30;10.77;;;13.50;99.90;;;;;;5131422;27;20391;-73
2022/11/01 01:55:54;;;;;;;18.35;11.35;;;13.50;99.90;;;;;;5112202;27;20435;-72
2022/11/01 01:58:25;;;;;;;22.63;11.15;;;13.50;99.90;;;;;;5119200;27;20402;-72
2022/11/01 02:00:52;;;;;;;18.63;10.82;;;13.50;99.90;;;;;;5114939;27;20392;-72
2022/11/01 02:03:19;;;;;;;22.10;11.10;;;13.60;99.90;;;;;;5094454;28;20397;-73
2022/11/01 02:05:53;;;;;;;17.70;10.80;;;13.60;99.90;;;;;;5113643;27;21270;-73
2022/11/01 02:08:26;;;;;;;16.52;10.23;;;13.60;99.90;;;;;;5129823;27;20406;-72
2022/11/01 02:11:06;;;;;;;18.85;10.50;;;13.60;99.90;;;;;;5107844;28;20400;-72
2022/11/01 02:13:32;;;;;;;18.85;10.27;;;13.60;99.90;;;;;;5130590;27;20421;-73
2022/11/01 02:16:25;;;;;;;17.60;9.65;;;13.60;99.90;;;;;;5130805;27;20383;-73
2022/11/01 02:19:28;;;;;;;15.32;9.68;;;13.70;99.90;;;;;;5108234;28;20411;-72
2022/11/01 02:22:21;;;;;;;18.52;10.30;;;13.70;99.90;;;;;;5104943;28;20428;-72
2022/11/01 02:25:09;;;;;;;15.98;9.45;;;13.70;99.90;;;;;;5123821;27;20403;-73
2022/11/01 02:27:40;;;;;;;16.00;9.20;;;13.70;99.90;;;;;;5104574;27;20440;-74
2022/11/01 02:30:21;;;;;;;18.55;9.27;;;13.80;99.90;;;;;;5122066;27;20408;-73
2022/11/01 02:33:20;;;;;;;17.90;9.23;;;13.70;99.90;;;;;;5128350;27;20460;-73
2022/11/01 02:36:10;;;;;;;18.60;8.70;;;13.80;99.90;;;;;;5091450;28;20408;-73
2022/11/01 02:38:50;;;;;;;16.33;8.18;;;13.80;99.90;;;;;;5123287;27;20404;-73
2022/11/01 02:41:22;;;;;;;14.70;8.63;;;13.90;99.90;;;;;;5129930;27;20955;-73
2022/11/01 02:44:08;;;;;;;13.00;8.00;;;13.90;99.90;;;;;;5129435;27;20414;-73
2022/11/01 02:49:35;;;;;;;14.38;8.45;;;13.90;99.90;;;;;;5126295;27;20413;-73
2022/11/01 02:52:01;;;;;;;15.73;8.20;;;13.90;99.90;;;;;;5110597;27;20411;-73
2022/11/01 02:54:31;;;;;;;14.60;8.07;;;13.90;99.90;;;;;;5130147;27;20394;-73
2022/11/01 02:57:25;;;;;;;15.23;8.43;;;13.90;99.90;;;;;;5129617;27;20399;-73
2022/11/01 02:59:51;;;;;;;15.50;8.27;;;14.00;99.90;;;;;;5129550;27;20394;-73
2022/11/01 03:02:16;;;;;;;13.65;8.02;;;13.90;99.90;;;;;;5129128;27;21016;-73
2022/11/01 03:04:42;;;;;;;12.70;7.73;;;13.90;99.90;;;;;;5115044;27;20407;-73
2022/11/01 03:07:11;;;;;;;14.95;8.13;;;13.90;99.90;;;;;;5097885;27;20504;-73
2022/11/01 03:09:37;;;;;;;16.02;8.20;;;14.00;99.90;;;;;;5121662;27;20395;-73
2022/11/01 03:12:15;;;;;;;16.70;7.78;;;14.00;99.90;;;;;;5097441;27;20491;-73
2022/11/01 03:14:50;;;;;;;14.40;7.75;;;14.00;99.90;;;;;;5090841;28;20479;-73
2022/11/01 03:17:44;;;;;;;15.05;7.80;;;14.00;99.90;;;;;;5125553;27;20406;-74
2022/11/01 03:20:50;;;;;;;14.70;8.20;;;14.00;99.90;;;;;;5124055;27;20421;-73
2022/11/01 03:23:21;;;;;;;13.90;7.22;;;14.00;99.90;;;;;;5081199;28;20975;-73
2022/11/01 03:25:52;;;;;;;18.13;7.75;;;14.00;99.90;;;;;;5114206;27;20437;-73
2022/11/01 03:28:25;;;;;;;13.10;7.68;;;14.00;99.90;;;;;;5107907;28;21262;-73
2022/11/01 03:30:58;;;;;;;13.15;7.65;;;14.10;99.90;;;;;;5118393;27;20904;-73
2022/11/01 03:33:26;;;;;;;13.23;7.47;;;14.00;99.90;;;;;;5126131;27;20442;-73
2022/11/01 03:35:56;;;;;;;16.20;7.80;;;14.00;99.90;;;;;;5098081;28;20495;-73
2022/11/01 03:38:27;;;;;;;12.97;7.33;;;14.10;99.90;;;;;;5110752;27;20454;-73
2022/11/01 03:40:59;;;;;;;13.95;7.40;;;14.10;99.90;;;;;;5098812;28;20769;-73
2022/11/01 03:43:26;;;;;;;14.68;7.47;;;14.10;99.90;;;;;;5128731;27;20438;-73
2022/11/01 03:45:53;;;;;;;14.77;7.25;;;14.10;99.90;;;;;;5119598;27;20777;-73
2022/11/01 03:48:19;;;;;;;15.00;7.40;;;14.10;99.90;;;;;;5126630;27;20470;-73
2022/11/01 03:50:49;;;;;;;14.07;7.60;;;14.10;99.90;;;;;;5128850;27;20617;-73
2022/11/01 03:53:15;;;;;;;12.50;6.65;;;14.10;99.90;;;;;;5128910;28;20409;-73
2022/11/01 03:55:42;;;;;;;11.98;6.93;;;14.10;99.90;;;;;;5128941;28;20394;-74
2022/11/01 03:58:08;;;;;;;14.10;6.65;;;14.10;99.90;;;;;;5099779;28;20430;-73
2022/11/01 04:00:40;;;;;;;14.55;7.20;;;14.10;99.90;;;;;;5120779;28;20390;-74
2022/11/01 04:03:06;;;;;;;14.63;7.20;;;14.20;99.90;;;;;;5106764;28;20494;-73
2022/11/01 04:05:33;;;;;;;12.95;6.75;;;14.10;99.90;;;;;;5110935;28;20791;-73
2022/11/01 04:07:59;;;;;;;13.32;6.80;;;14.10;99.90;;;;;;5122437;28;20901;-73
2022/11/01 04:10:26;;;;;;;16.17;6.50;;;14.20;99.90;;;;;;5121685;28;20455;-73
2022/11/01 04:12:52;;;;;;;13.57;6.50;;;14.20;99.90;;;;;;5107194;28;20473;-73
2022/11/01 04:21:01;;;;;;;11.18;6.22;;;14.20;99.90;;;;;;5128410;28;20516;-73
2022/11/01 04:23:26;;;;;;;11.95;6.00;;;14.20;99.90;;;;;;5110192;28;20395;-73
2022/11/01 04:25:52;;;;;;;16.83;6.50;;;14.20;99.90;;;;;;5080657;28;20410;-73
2022/11/01 04:28:18;;;;;;;11.32;5.60;;;14.30;99.90;;;;;;5097303;28;20403;-73
2022/11/01 04:30:43;;;;;;;12.67;6.10;;;14.30;99.90;;;;;;5115140;28;20419;-73
2022/11/01 04:33:09;;;;;;;10.75;5.78;;;14.40;99.90;;;;;;5122809;28;20755;-73
2022/11/01 04:35:36;;;;;;;12.07;6.07;;;14.40;99.90;;;;;;5094843;28;20414;-73
2022/11/01 04:38:03;;;;;;;12.98;6.10;;;14.40;99.90;;;;;;5106983;28;20411;-73
2022/11/01 04:40:29;;;;;;;11.27;5.80;;;14.40;99.90;;;;;;5130623;27;20411;-73
2022/11/01 04:42:55;;;;;;;11.80;6.40;;;14.40;99.90;;;;;;5121072;27;21040;-73
2022/11/01 04:45:21;;;;;;;13.00;6.17;;;14.40;99.90;;;;;;5111340;28;20925;-73
2022/11/01 04:47:51;;;;;;;12.10;5.95;;;14.40;99.90;;;;;;5111341;27;20786;-73
2022/11/01 04:50:20;;;;;;;12.65;6.22;;;14.30;99.90;;;;;;5132605;27;20398;-73
2022/11/01 04:52:49;;;;;;;14.45;6.13;;;14.30;99.90;;;;;;5118870;27;20471;-73
2022/11/01 04:55:14;;;;;;;10.02;5.78;;;14.30;99.90;;;;;;5128339;27;20847;-73
2022/11/01 04:57:41;;;;;;;16.23;6.93;;;14.30;99.90;;;;;;5132356;27;20529;-73
2022/11/01 05:00:10;;;;;;;10.45;5.82;;;14.40;99.90;;;;;;5121129;27;20397;-73
2022/11/01 05:02:37;;;;;;;11.02;5.97;;;14.30;99.90;;;;;;5112124;28;20455;-73
2022/11/01 05:05:05;;;;;;;13.32;5.97;;;14.40;99.90;;;;;;5095345;27;21184;-73
2022/11/01 05:07:31;;;;;;;13.82;5.78;;;14.30;99.90;;;;;;5131707;27;20402;-73
2022/11/01 05:09:56;;;;;;;12.65;5.65;;;14.30;99.90;;;;;;5132421;27;20398;-73
2022/11/01 05:12:22;;;;;;;9.57;5.60;;;14.30;99.90;;;;;;5131879;27;20790;-73
2022/11/01 05:14:48;;;;;;;10.07;5.85;;;14.30;99.90;;;;;;5132181;27;20398;-73
2022/11/01 05:17:13;;;;;;;11.47;5.73;;;14.30;99.90;;;;;;5115308;27;20534;-73
2022/11/01 05:19:39;;;;;;;12.37;5.83;;;14.30;99.90;;;;;;5115585;27;20778;-73
2022/11/01 05:22:05;;;;;;;9.98;5.65;;;14.30;99.90;;;;;;5127968;27;20433;-73
2022/11/01 05:24:30;;;;;;;9.73;5.47;;;14.30;99.90;;;;;;5131305;27;20496;-73
2022/11/01 05:26:56;;;;;;;11.32;5.47;;;14.30;99.90;;;;;;5129169;27;20475;-73
2022/11/01 05:29:21;;;;;;;10.13;5.40;;;14.30;99.90;;;;;;5131272;27;20395;-74
2022/11/01 05:31:47;;;;;;;11.33;5.63;;;14.30;99.90;;;;;;5131795;27;20390;-73
2022/11/01 05:34:12;;;;;;;14.73;5.78;;;14.30;99.90;;;;;;5122647;27;20445;-73
2022/11/01 05:36:38;;;;;;;10.87;5.20;;;14.30;99.90;;;;;;5114737;27;20400;-73
2022/11/01 05:39:04;;;;;;;12.18;5.40;;;14.30;99.90;;;;;;5127275;27;20808;-73
2022/11/01 05:41:30;;;;;;;12.07;6.10;;;14.20;99.90;;;;;;5111273;27;20434;-73
2022/11/01 05:43:55;;;;;;;10.07;5.35;;;14.20;99.90;;;;;;5121415;27;20488;-73
2022/11/01 05:46:21;;;;;;;12.00;5.60;;;14.20;99.90;;;;;;5126868;27;20438;-73
2022/11/01 05:48:46;;;;;;;11.48;5.90;;;14.20;99.90;;;;;;5109475;28;20806;-73
2022/11/01 05:51:12;;;;;;;11.40;5.50;;;14.20;99.90;;;;;;5124178;27;20856;-73
2022/11/01 05:53:38;;;;;;;12.00;5.22;;;14.10;99.90;;;;;;5111462;27;20415;-73
2022/11/01 05:56:03;;;;;;;9.40;5.13;;;14.20;99.90;;;;;;5117843;27;20393;-73
2022/11/01 05:58:29;;;;;;;11.48;5.05;;;14.10;99.90;;;;;;5105084;28;20420;-73
2022/11/01 06:01:04;;;;;;;11.18;5.18;;;14.20;99.90;;;;;;5127127;27;20473;-74
2022/11/01 06:03:30;;;;;;;9.25;4.82;;;14.20;99.90;;;;;;5120591;27;20900;-73
2022/11/01 06:05:56;;;;;;;8.75;4.82;;;14.30;99.90;;;;;;5110256;27;20413;-73
2022/11/01 06:08:22;;;;;;;10.52;4.68;;;14.30;99.90;;;;;;5114285;27;20446;-73
2022/11/01 06:10:47;;;;;;;14.00;5.27;;;14.40;99.90;;;;;;5111191;27;20403;-73
2022/11/01 06:13:13;;;;;;;10.75;4.65;;;14.50;99.90;;;;;;5111571;27;20397;-73
2022/11/01 06:15:39;;;;;;;9.57;4.57;;;14.50;99.90;;;;;;5113880;27;20409;-73
2022/11/01 06:18:04;;;;;;;11.43;5.03;;;14.60;99.90;;;;;;5130784;27;20401;-74
2022/11/01 06:20:31;;;;;;;9.93;5.13;;;14.60;99.90;;;;;;5090552;27;20414;-73
2022/11/01 06:22:58;;;;;;;8.02;4.85;;;14.60;99.90;;;;;;5101618;28;20436;-73
2022/11/01 06:25:25;;;;;;;9.20;3.95;;;14.60;99.90;;;;;;5129289;27;20776;-73
2022/11/01 06:27:52;;;;;;;8.63;2.45;;;14.60;99.90;;;;;;5127414;27;20401;-73
2022/11/01 06:30:18;;;;;;;6.03;1.20;;;14.70;99.90;;;;;;5130326;27;20394;-73
2022/11/01 06:32:43;;;;;;;4.87;1.00;;;14.70;99.90;;;;;;5127640;27;20405;-73
2022/11/01 06:35:10;;;;;;;3.83;0.85;;;14.70;99.90;;;;;;5127359;27;20905;-73
2022/11/01 06:37:37;;;;;;;5.80;0.93;;;14.70;99.90;;;;;;5074581;28;20408;-73
2022/11/01 06:40:03;;;;;;;6.85;0.80;;;14.70;99.90;;;;;;5126306;27;20413;-73
2022/11/01 06:42:29;;;;;;;8.30;0.70;;;14.60;99.90;;;;;;5108027;28;20477;-73
2022/11/01 06:44:55;;;;;;;6.37;0.80;;;14.50;99.90;;;;;;5128787;27;20390;-73
2022/11/01 06:47:20;;;;;;;4.27;0.70;;;14.60;99.90;;;;;;5129457;27;20763;-73
2022/11/01 06:49:46;;;;;;;5.25;0.73;;;14.50;99.90;;;;;;5107192;28;20404;-74
2022/11/01 06:52:11;;;;;;;5.67;0.73;;;14.50;99.90;;;;;;5111762;27;20411;-73
2022/11/01 06:54:37;;;;;;;4.05;0.50;;;14.40;99.90;;;;;;5126269;27;20443;-73
2022/11/01 06:57:03;;;;;;;3.50;0.50;;;14.30;99.90;;;;;;5100715;28;20400;-73
2022/11/01 06:59:28;;;;;;;6.15;1.00;;;14.20;99.90;;;;;;5125745;27;20480;-73
2022/11/01 07:01:54;;;;;;;3.87;0.80;;;14.20;99.90;;;;;;5129623;27;20475;-74
2022/11/01 07:04:20;;;;;;;4.43;0.55;;;14.10;99.90;;;;;;5115257;27;20410;-74
2022/11/01 07:06:46;;;;;;;2.80;0.40;;;14.10;99.90;;;;;;5104233;27;20431;-74
2022/11/01 07:09:12;;;;;;;4.20;0.55;;;14.10;99.90;;;;;;5126769;27;20414;-74
2022/11/01 07:11:38;;;;;;;4.97;0.70;;;14.00;99.90;;;;;;5127912;27;20410;-74
2022/11/01 07:14:04;;;;;;;6.28;1.10;;;14.00;99.90;;;;;;5122125;27;20400;-74
2022/11/01 07:16:31;;;;;;;5.07;0.70;;;13.90;99.90;;;;;;5122922;27;20818;-74
2022/11/01 07:18:56;;;;;;;4.50;0.80;;;13.90;99.90;;;;;;5127413;27;20418;-74
2022/11/01 07:21:22;;;;;;;6.43;0.55;;;13.90;99.90;;;;;;5108537;27;20438;-74
2022/11/01 07:23:48;;;;;;;7.43;1.00;;;13.80;99.90;;;;;;5106652;28;20404;-73
2022/11/01 07:26:14;;;;;;;5.33;0.83;;;13.90;99.90;;;;;;5115934;27;20410;-73
2022/11/01 07:28:40;;;;;;;6.55;0.90;;;13.90;99.90;;;;;;5129449;27;20725;-74
2022/11/01 07:31:06;;;;;;;7.07;0.87;;;13.80;99.90;;;;;;5120116;27;20433;-74
2022/11/01 07:33:32;;;;;;;7.70;0.88;;;13.80;99.90;;;;;;5126178;27;20497;-74
2022/11/01 07:35:59;;;;;;;6.97;0.85;;;13.80;99.90;;;;;;5127645;27;20467;-74
2022/11/01 07:38:24;;;;;;;6.50;0.80;;;13.70;99.90;;;;;;5125442;27;20397;-73
2022/11/01 07:40:52;;;;;;;9.40;1.10;;;13.70;99.90;;;;;;5107108;27;20417;-73
2022/11/01 07:43:18;;;;;;;8.57;1.10;;;13.70;99.90;;;;;;5127503;27;20466;-73
2022/11/01 07:45:44;;;;;;;6.82;0.95;;;13.80;99.90;;;;;;5127498;27;20967;-73
2022/11/01 07:48:12;;;;;;;5.72;0.88;;;13.80;99.90;;;;;;5120490;27;20449;-73
2022/11/01 07:50:39;;;;;;;7.30;1.00;;;13.90;99.90;;;;;;5104384;27;20475;-73
2022/11/01 07:53:15;;;;;;;7.05;0.98;;;14.00;99.90;;;;;;5091584;28;20447;-73
2022/11/01 07:55:41;;;;;;;5.70;0.70;;;14.00;99.90;;;;;;5126104;28;20449;-73
2022/11/01 07:58:08;;;;;;;7.15;1.05;;;14.00;99.90;;;;;;5120228;28;20400;-73
2022/11/01 08:00:35;;;;;;;6.70;1.13;;;14.00;99.90;;;;;;5106567;28;20417;-73
2022/11/01 08:03:02;;;;;;;9.25;1.35;;;14.00;99.90;;;;;;5116216;28;20880;-73
2022/11/01 08:05:29;;;;;;;8.90;1.50;;;14.00;99.90;;;;;;5120570;28;20729;-74
2022/11/01 08:07:54;;;;;;;7.28;1.20;;;14.10;99.90;;;;;;5126005;28;20395;-73
2022/11/01 08:10:20;;;;;;;7.77;1.40;;;14.10;99.90;;;;;;5109527;28;20434;-73
2022/11/01 08:12:46;;;;;;;9.95;1.42;;;14.20;99.90;;;;;;5121033;28;20417;-73
2022/11/01 08:15:12;;;;;;;10.10;1.63;;;14.20;99.90;;;;;;5127051;27;20805;-73
2022/11/01 08:17:37;;;;;;;10.35;1.27;;;14.20;99.90;;;;;;5095506;27;20426;-73
2022/11/01 08:20:03;;;;;;;8.73;1.30;;;14.30;99.90;;;;;;5131886;27;20386;-72
2022/11/01 08:22:29;;;;;;;7.23;1.20;;;14.30;99.90;;;;;;5110048;27;20436;-73
2022/11/01 08:24:55;;;;;;;6.07;1.10;;;14.40;99.90;;;;;;5130424;27;20412;-73
2022/11/01 08:27:20;;;;;;;7.70;1.10;;;14.50;99.90;;;;;;5105792;27;20424;-73
2022/11/01 08:29:46;;;;;;;9.02;1.50;;;14.60;99.90;;;;;;5110370;28;20761;-73
2022/11/01 08:32:12;;;;;;;8.73;0.90;;;14.70;99.90;;;;;;5125043;27;20402;-73
2022/11/01 08:34:37;;;;;;;7.57;0.80;;;14.70;99.90;;;;;;5132361;27;20410;-73
2022/11/01 08:37:03;;;;;;;7.30;1.07;;;14.80;99.90;;;;;;5132463;27;20482;-73
2022/11/01 08:39:29;;;;;;;7.32;0.95;;;14.90;99.90;;;;;;5132287;27;20422;-72
2022/11/01 08:41:56;;;;;;;9.40;1.33;;;15.00;99.90;;;;;;5126618;27;20515;-73
2022/11/01 08:44:22;;;;;;;6.53;1.10;;;15.10;99.90;;;;;;5112222;27;20410;-73
2022/11/01 08:46:47;;;;;;;8.55;1.33;;;15.00;99.90;;;;;;5124172;27;20414;-74
2022/11/01 08:49:13;;;;;;;7.80;1.37;;;15.00;99.90;;;;;;5121058;27;20440;-73
2022/11/01 08:51:39;;;;;;;11.13;1.50;;;15.00;99.90;;;;;;5091444;27;20835;-73
2022/11/01 08:54:06;;;;;;;12.82;1.98;;;15.00;99.90;;;;;;5116464;27;20416;-73
2022/11/01 08:56:32;;;;;;;17.25;2.60;;;14.90;99.90;;;;;;5118008;27;20414;-73
2022/11/01 08:58:58;;;;;;;12.15;2.13;;;14.90;99.90;;;;;;5112401;27;20415;-74
2022/11/01 09:01:25;;;;;;;11.03;1.90;;;14.90;99.90;;;;;;5131251;27;20479;-74
2022/11/01 09:03:55;;;;;;;15.57;2.17;;;14.80;99.90;;;;;;5129440;27;20470;-75
2022/11/01 09:06:21;;;;;;;14.60;1.90;;;14.80;99.90;;;;;;5108116;27;20473;-74
2022/11/01 09:08:49;;;;;;;16.52;3.35;;;14.70;99.90;;;;;;5124661;27;21352;-74
2022/11/01 09:11:14;;;;;;;13.60;2.38;;;14.70;99.90;;;;;;5126676;27;20423;-74
2022/11/01 09:13:40;;;;;;;14.32;2.20;;;14.70;99.90;;;;;;5118656;27;20407;-74
2022/11/01 09:16:07;;;;;;;14.40;2.13;;;14.60;99.90;;;;;;5118051;27;21596;-74
2022/11/01 09:18:32;;;;;;;11.88;2.13;;;14.70;99.90;;;;;;5125392;27;20411;-74
2022/11/01 09:20:58;;;;;;;14.93;2.40;;;14.70;99.90;;;;;;5130432;27;20407;-74
2022/11/01 09:23:23;;;;;;;13.75;2.33;;;14.70;99.90;;;;;;5122565;27;20928;-74
2022/11/01 09:25:49;;;;;;;12.77;2.27;;;14.80;99.90;;;;;;5090468;28;20407;-75
2022/11/01 09:28:15;;;;;;;13.37;2.20;;;14.80;99.90;;;;;;5122072;27;20968;-75
2022/11/01 09:30:40;;;;;;;14.95;2.25;;;14.90;99.90;;;;;;5094503;27;20390;-75
2022/11/01 09:33:09;;;;;;;10.87;2.10;;;15.10;99.90;;;;;;5111205;27;20435;-74
2022/11/01 09:35:35;;;;;;;14.43;2.83;;;15.60;99.90;;;;;;5121893;27;20528;-75
2022/11/01 09:38:01;;;;;;;18.57;2.80;;;16.30;99.90;;;;;;5107107;27;20406;-75
2022/11/01 09:40:34;;;;;;;12.52;2.92;;;16.80;99.90;;;;;;5124857;27;20791;-75
2022/11/01 09:43:02;;;;;;;14.65;2.47;;;17.10;99.90;;;;;;5108755;27;20468;-75
2022/11/01 09:45:30;;;;;;;15.55;2.78;;;17.30;99.90;;;;;;5126747;27;20414;-73
2022/11/01 09:47:58;;;;;;;11.70;2.00;;;17.30;99.90;;;;;;5124350;27;20453;-73
2022/11/01 09:50:33;;;;;;;13.40;2.08;;;17.30;99.90;;;;;;5125204;27;20410;-73
2022/11/01 09:52:59;;;;;;;13.07;2.42;;;17.10;99.90;;;;;;5125920;27;20411;-73
2022/11/01 09:55:33;;;;;;;17.38;2.60;;;16.80;99.90;;;;;;5129516;27;20818;-73
2022/11/01 09:58:21;;;;;;;15.32;2.42;;;16.70;99.90;;;;;;5112948;27;20398;-75
2022/11/01 10:01:04;;;;;;;16.40;2.67;;;16.50;99.90;;;;;;5108646;27;20400;-75
2022/11/01 10:03:54;;;;;;;13.32;1.98;;;16.40;99.90;;;;;;5124951;27;20419;-75
2022/11/01 10:06:27;;;;;;;11.90;2.15;;;16.40;99.90;;;;;;5116943;27;20903;-73
2022/11/01 10:09:14;;;;;;;11.35;2.28;;;16.60;99.90;;;;;;5126798;27;20415;-75
2022/11/01 10:11:52;;;;;;;12.52;2.40;;;17.30;99.90;;;;;;5123299;27;20420;-73
2022/11/01 10:14:46;;;;;;;16.63;2.40;;;18.20;99.90;;;;;;5100744;27;20518;-75
2022/11/01 10:17:15;;;;;;;11.40;2.05;;;19.10;99.90;;;;;;5129301;27;20430;-74
2022/11/01 10:19:45;;;;;;;13.55;2.13;;;19.80;99.90;;;;;;5125215;27;20499;-74
2022/11/01 10:22:16;;;;;;;12.73;2.35;;;20.40;99.90;;;;;;5098863;28;20428;-74
2022/11/01 10:24:57;;;;;;;13.50;2.70;;;20.80;99.90;;;;;;5123262;27;21114;-74
2022/11/01 10:27:37;;;;;;;14.13;2.25;;;21.00;99.90;;;;;;5125822;27;20400;-74
2022/11/01 10:30:07;;;;;;;12.00;2.08;;;21.10;99.90;;;;;;5090855;27;20422;-74
2022/11/01 10:32:39;;;;;;;15.77;2.90;;;21.40;99.90;;;;;;5085756;28;20416;-73
2022/11/01 10:35:14;;;;;;;13.20;2.70;;;21.50;99.90;;;;;;5126026;27;20770;-74
2022/11/01 10:37:47;;;;;;;14.15;2.20;;;21.00;99.10;;;;;;5106121;27;20404;-74
2022/11/01 10:40:17;;;;;;;13.40;2.20;;;20.70;99.90;;;;;;5110051;27;20406;-74
2022/11/01 10:42:42;;;;;;;12.02;2.30;;;20.20;99.80;;;;;;5123146;27;20437;-74
2022/11/01 10:45:17;;;;;;;11.37;2.30;;;19.70;99.90;;;;;;5126646;27;20422;-75
2022/11/01 10:47:45;;;;;;;12.63;2.50;;;19.50;99.90;;;;;;5126745;27;20932;-74
2022/11/01 10:50:10;;;;;;;14.75;2.58;;;19.10;99.90;;;;;;5129087;27;20421;-74
2022/11/01 10:52:55;;;;;;;17.27;3.33;;;18.60;99.90;;;;;;5118088;27;20428;-74
2022/11/01 10:55:42;;;;;;;14.02;2.65;;;18.30;99.90;;;;;;5110141;27;20507;-74
2022/11/01 10:58:23;;;;;;;13.60;2.95;;;18.60;99.90;;;;;;5126772;27;20441;-74
2022/11/01 11:00:50;;;;;;;13.38;2.65;;;19.20;99.90;;;;;;5126400;27;20478;-74
2022/11/01 11:03:26;;;;;;;14.52;3.03;;;19.20;99.90;;;;;;5130080;27;20475;-74
2022/11/01 11:05:53;;;;;;;13.98;2.65;;;19.20;99.90;;;;;;5129543;27;20457;-74
2022/11/01 11:08:22;;;;;;;13.05;2.60;;;19.30;99.90;;;;;;5110007;27;20501;-74
2022/11/01 11:10:48;;;;;;;11.20;2.00;;;19.30;99.90;;;;;;5128687;27;20490;-74
2022/11/01 11:13:19;;;;;;;13.95;2.58;;;18.80;99.90;;;;;;5102500;27;20468;-74
2022/11/01 11:15:52;;;;;;;14.10;2.70;;;18.30;99.90;;;;;;5121429;27;20418;-74
2022/11/01 11:18:36;;;;;;;15.50;2.85;;;17.90;99.90;;;;;;5121333;27;20419;-74
2022/11/01 11:21:05;;;;;;;17.50;2.83;;;17.50;99.90;;;;;;5124444;27;20433;-74
2022/11/01 11:23:33;;;;;;;14.65;2.60;;;17.30;99.90;;;;;;5123560;27;20826;-74
2022/11/01 11:26:08;;;;;;;12.20;2.27;;;17.00;99.90;;;;;;5115289;27;20457;-74
2022/11/01 11:28:41;;;;;;;13.02;2.35;;;16.80;99.90;;;;;;5120327;27;20399;-74
2022/11/01 11:31:20;;;;;;;11.38;2.00;;;16.60;99.90;;;;;;5106561;28;20411;-74
2022/11/01 11:33:49;;;;;;;18.95;2.70;;;16.50;99.90;;;;;;5107123;27;20420;-74
2022/11/01 11:36:14;;;;;;;12.93;2.30;;;16.40;99.90;;;;;;5126409;27;20480;-74
2022/11/01 11:38:43;;;;;;;13.88;2.42;;;16.30;99.90;;;;;;5108576;27;20410;-74
2022/11/01 11:41:10;;;;;;;14.52;2.60;;;16.30;99.90;;;;;;5108364;27;20908;-74
2022/11/01 11:43:39;;;;;;;16.90;2.42;;;16.40;99.90;;;;;;5106664;27;20411;-73
2022/11/01 11:46:20;;;;;;;16.43;2.50;;;16.40;99.90;;;;;;5124191;27;20428;-73
2022/11/01 11:49:24;;;;;;;10.77;2.28;;;16.40;99.90;;;;;;5108774;28;20409;-74
2022/11/01 11:51:51;;;;;;;13.20;2.50;;;16.30;99.90;;;;;;5119848;27;20426;-74
2022/11/01 11:54:27;;;;;;;14.43;2.47;;;16.30;99.90;;;;;;5097763;28;20416;-74
2022/11/01 11:57:16;;;;;;;12.80;2.65;;;16.30;99.90;;;;;;5123745;28;20527;-74
2022/11/01 11:59:44;;;;;;;12.82;2.53;;;16.40;99.90;;;;;;5102405;28;20411;-74
2022/11/01 12:02:29;;;;;;;12.98;2.00;;;16.40;99.90;;;;;;5101590;28;20955;-74
2022/11/01 12:05:00;;;;;;;20.27;3.00;;;16.60;99.90;;;;;;5124552;28;20438;-74
2022/11/01 12:07:32;;;;;;;11.65;2.10;;;16.70;99.90;;;;;;5099499;28;20424;-74
2022/11/01 12:10:05;;;;;;;16.70;2.73;;;16.70;99.90;;;;;;5124490;28;20955;-74
2022/11/01 12:12:33;;;;;;;12.57;2.40;;;16.60;99.90;;;;;;5123747;28;20796;-74
2022/11/01 12:15:02;;;;;;;12.98;2.03;;;16.60;99.90;;;;;;5114091;28;20451;-74
2022/11/01 12:17:30;;;;;;;16.08;2.35;;;16.50;99.90;;;;;;5108195;28;20411;-74
2022/11/01 12:20:12;;;;;;;13.73;2.20;;;16.50;99.90;;;;;;5108657;28;20406;-74
2022/11/01 12:22:41;;;;;;;10.27;1.67;;;16.50;99.90;;;;;;5127206;28;20442;-76
2022/11/01 12:25:14;;;;;;;12.30;1.90;;;16.50;99.90;;;;;;5100491;28;20408;-74
2022/11/01 12:27:55;;;;;;;12.30;1.98;;;16.50;99.90;;;;;;5127338;28;20427;-74
2022/11/01 12:30:23;;;;;;;11.47;2.17;;;16.40;99.90;;;;;;5108393;28;20392;-74
2022/11/01 12:32:52;;;;;;;12.20;2.03;;;16.50;99.90;;;;;;5109914;28;20397;-75
2022/11/01 12:35:41;;;;;;;12.18;2.38;;;16.50;99.90;;;;;;5119220;28;20457;-75
2022/11/01 12:38:32;;;;;;;12.02;2.40;;;16.50;99.90;;;;;;5102004;28;20487;-75
2022/11/01 12:41:14;;;;;;;10.73;2.05;;;16.50;99.90;;;;;;5118401;28;20502;-75
2022/11/01 12:44:02;;;;;;;14.75;2.08;;;16.50;99.90;;;;;;5123311;28;20411;-75
2022/11/01 12:46:43;;;;;;;12.90;2.00;;;16.50;99.90;;;;;;5083131;28;20477;-76
2022/11/01 12:49:31;;;;;;;10.95;1.77;;;16.50;99.90;;;;;;5101400;28;20805;-75
2022/11/01 12:52:15;;;;;;;12.73;2.22;;;16.50;99.90;;;;;;5128387;28;20403;-75
2022/11/01 12:54:51;;;;;;;12.25;2.10;;;16.60;99.90;;;;;;5115925;28;20416;-75
2022/11/01 12:57:17;;;;;;;10.27;2.10;;;16.70;99.90;;;;;;5124975;28;20587;-75
2022/11/01 12:59:45;;;;;;;11.70;2.00;;;16.70;99.90;;;;;;5124255;27;20419;-76